Time;durP1;ratioP1;P1;durP2;ratioP2;P2;SDS_P1;SDS_P2;PMS_P1;PMS_P2;Temp;Humidity;BMP_temperature;BMP_pressure;BME280_temperature;BME280_humidity;BME280_pressure;Samples;Min_cycle;Max_cycle;Signal;HPM_P1;HPM_P2
2023/01/31 00:01:38;;;;;;;21.17;3.55;;;;;;;5.92;75.77;100390.16;5033370;28;20057;-79
2023/01/31 00:04:08;;;;;;;24.73;4.32;;;;;;;5.91;75.59;100388.41;5033151;28;20075;-80
2023/01/31 00:06:37;;;;;;;21.50;3.40;;;;;;;5.91;75.71;100398.88;5032842;28;20061;-80
2023/01/31 00:09:06;;;;;;;16.08;4.35;;;;;;;5.90;75.60;100401.56;5032876;28;20115;-80
2023/01/31 00:11:33;;;;;;;26.13;4.03;;;;;;;5.90;75.86;100409.41;5033149;28;20053;-80
2023/01/31 00:14:04;;;;;;;25.40;3.38;;;;;;;5.89;75.76;100399.81;5033236;28;20245;-80
2023/01/31 00:16:31;;;;;;;22.45;3.45;;;;;;;5.91;76.27;100408.50;5015104;28;20103;-79
2023/01/31 00:18:58;;;;;;;17.60;2.95;;;;;;;5.91;76.03;100405.88;5015271;28;20057;-78
2023/01/31 00:21:29;;;;;;;18.90;3.63;;;;;;;5.92;75.95;100404.97;5032815;28;20061;-79
2023/01/31 00:23:57;;;;;;;23.67;5.00;;;;;;;5.92;76.14;100404.97;5033025;28;20395;-79
2023/01/31 00:26:29;;;;;;;17.83;3.72;;;;;;;5.93;76.14;100401.44;5032638;28;20517;-79
2023/01/31 00:28:56;;;;;;;19.08;3.72;;;;;;;5.94;75.74;100397.97;5032619;28;20143;-79
2023/01/31 00:31:25;;;;;;;20.17;3.70;;;;;;;5.93;75.61;100397.09;5032740;28;20057;-80
2023/01/31 00:33:54;;;;;;;20.40;3.20;;;;;;;5.93;75.33;100388.38;5032634;28;20058;-80
2023/01/31 00:36:23;;;;;;;24.13;3.50;;;;;;;5.91;75.08;100385.81;5032072;28;20061;-80
2023/01/31 00:38:53;;;;;;;16.88;3.85;;;;;;;5.87;74.75;100385.03;5032430;28;20494;-80
2023/01/31 00:41:21;;;;;;;15.07;3.10;;;;;;;5.86;75.08;100385.09;5032648;28;20049;-79
2023/01/31 00:43:49;;;;;;;22.30;3.42;;;;;;;5.82;74.76;100389.53;5014724;28;20452;-80
2023/01/31 00:46:16;;;;;;;22.10;3.33;;;;;;;5.79;74.88;100386.16;5030878;28;20060;-80
2023/01/31 00:48:42;;;;;;;16.52;3.15;;;;;;;5.74;74.94;100388.91;5029640;28;20239;-79
2023/01/31 00:51:09;;;;;;;22.27;4.13;;;;;;;5.71;74.96;100388.97;5020460;28;20050;-79
2023/01/31 00:53:35;;;;;;;17.75;3.25;;;;;;;5.66;74.58;100386.50;5012711;28;20061;-79
2023/01/31 00:56:08;;;;;;;25.27;3.00;;;;;;;5.62;74.54;100377.03;5012339;28;20499;-80
2023/01/31 00:58:35;;;;;;;20.10;3.50;;;;;;;5.58;74.75;100384.06;5012353;28;20060;-80
2023/01/31 01:01:12;;;;;;;21.05;3.67;;;;;;;5.51;74.24;100385.13;5012307;28;20050;-79
2023/01/31 01:03:40;;;;;;;23.50;3.55;;;;;;;5.50;74.91;100385.16;5012392;28;20053;-79
2023/01/31 01:06:07;;;;;;;19.70;4.32;;;;;;;5.44;74.85;100384.44;5032162;28;20069;-80
2023/01/31 01:08:35;;;;;;;18.55;3.85;;;;;;;5.40;74.68;100380.19;5031957;28;20111;-80
2023/01/31 01:11:17;;;;;;;18.67;3.65;;;;;;;5.34;73.96;100386.41;5031905;28;20073;-79
2023/01/31 01:13:44;;;;;;;22.92;3.60;;;;;;;5.32;75.10;100396.06;5031686;28;20050;-80
2023/01/31 01:16:27;;;;;;;17.10;2.90;;;;;;;5.28;74.67;100393.53;5032069;28;20065;-79
2023/01/31 01:18:54;;;;;;;15.20;3.35;;;;;;;5.24;75.03;100392.78;5031694;28;20061;-79
2023/01/31 01:21:26;;;;;;;14.75;3.25;;;;;;;5.21;74.81;100401.50;5031578;28;20076;-80
2023/01/31 01:23:57;;;;;;;21.15;3.33;;;;;;;5.18;75.17;100405.97;5031711;28;20046;-80
2023/01/31 01:26:26;;;;;;;16.75;3.08;;;;;;;5.16;75.02;100399.94;5031760;28;20056;-80
2023/01/31 01:28:54;;;;;;;21.38;3.38;;;;;;;5.13;75.32;100393.03;5031740;28;20045;-79
2023/01/31 01:31:28;;;;;;;17.48;3.10;;;;;;;5.11;75.39;100401.78;5031767;28;20111;-79
2023/01/31 01:34:10;;;;;;;15.20;3.17;;;;;;;5.05;74.65;100398.41;5032106;28;20053;-79
2023/01/31 01:36:37;;;;;;;21.85;3.95;;;;;;;5.06;75.33;100394.94;5032279;28;20061;-79
2023/01/31 01:39:07;;;;;;;24.67;3.92;;;;;;;5.03;75.04;100397.59;5032171;28;20056;-79
2023/01/31 01:41:34;;;;;;;23.65;3.60;;;;;;;5.01;74.91;100390.72;5032282;28;20061;-79
2023/01/31 01:44:03;;;;;;;25.23;3.60;;;;;;;4.97;75.46;100392.53;5031980;28;20053;-80
2023/01/31 01:46:37;;;;;;;23.23;4.75;;;;;;;4.93;74.92;100394.34;5031811;28;20493;-79
2023/01/31 01:49:29;;;;;;;21.50;3.65;;;;;;;4.89;74.57;100403.13;5030750;28;20057;-79
2023/01/31 01:52:01;;;;;;;21.20;3.00;;;;;;;4.89;75.01;100413.56;5031830;28;20050;-79
2023/01/31 01:54:35;;;;;;;16.58;2.97;;;;;;;4.86;75.11;100408.41;5032204;28;20057;-79
2023/01/31 01:57:05;;;;;;;21.50;3.53;;;;;;;4.83;75.38;100409.34;5031518;28;20115;-79
2023/01/31 01:59:49;;;;;;;19.00;3.40;;;;;;;4.81;74.78;100410.28;5031531;28;20057;-79
2023/01/31 02:02:16;;;;;;;16.23;2.88;;;;;;;4.82;75.52;100412.84;5031679;28;20092;-79
2023/01/31 02:04:47;;;;;;;21.75;3.42;;;;;;;4.80;75.25;100416.41;5031661;28;20060;-79
2023/01/31 02:07:14;;;;;;;23.30;3.30;;;;;;;4.79;75.70;100433.78;5031807;28;20131;-79
2023/01/31 02:09:47;;;;;;;24.23;3.90;;;;;;;4.76;75.49;100415.63;5031264;28;20057;-79
2023/01/31 02:12:14;;;;;;;17.27;2.90;;;;;;;4.76;75.63;100428.66;5031218;28;20497;-79
2023/01/31 02:14:41;;;;;;;19.13;3.20;;;;;;;4.74;75.40;100425.22;5013694;28;20057;-79
2023/01/31 02:17:13;;;;;;;11.95;2.60;;;;;;;4.72;75.23;100432.22;5031314;28;20119;-79
2023/01/31 02:20:05;;;;;;;15.00;2.88;;;;;;;4.71;75.13;100430.47;5031210;28;20050;-80
2023/01/31 02:22:53;;;;;;;17.67;3.50;;;;;;;4.71;74.80;100430.47;5030940;28;20084;-79
2023/01/31 02:25:50;;;;;;;20.70;3.20;;;;;;;4.71;74.92;100446.13;5031165;28;20057;-79
2023/01/31 02:28:38;;;;;;;21.20;3.05;;;;;;;4.71;74.76;100440.91;5030999;28;20050;-80
2023/01/31 02:31:24;;;;;;;17.63;3.85;;;;;;;4.74;75.60;100442.63;5030999;28;20421;-79
2023/01/31 02:34:06;;;;;;;22.13;3.78;;;;;;;4.71;74.76;100435.69;5031014;28;20520;-80
2023/01/31 02:36:45;;;;;;;23.20;4.18;;;;;;;4.72;75.34;100434.84;5030692;28;20088;-79
2023/01/31 02:39:18;;;;;;;17.67;3.22;;;;;;;4.68;74.76;100436.63;5030697;28;20512;-79
2023/01/31 02:41:55;;;;;;;22.08;3.22;;;;;;;4.67;74.87;100434.03;5013596;28;20054;-79
2023/01/31 02:44:59;;;;;;;22.33;3.80;;;;;;;4.64;74.29;100432.38;5031312;28;20053;-79
2023/01/31 02:47:45;;;;;;;20.70;4.03;;;;;;;4.64;74.50;100428.91;5030687;28;20115;-79
2023/01/31 02:50:59;;;;;;;29.17;3.83;;;;;;;4.61;74.33;100423.75;5030793;28;20053;-79
2023/01/31 02:53:33;;;;;;;21.40;2.97;;;;;;;4.64;75.08;100423.72;4969464;28;20111;-80
2023/01/31 02:56:16;;;;;;;13.23;2.83;;;;;;;4.62;75.57;100418.53;4969541;28;20538;-79
2023/01/31 02:58:47;;;;;;;;;;;;;;;4.62;73.85;100410.69;5012627;28;20099;-80
2023/01/31 03:01:18;;;;;;;13.77;3.33;;;;;;;4.64;75.48;100401.06;5031170;28;19928;-79
2023/01/31 03:03:45;;;;;;;22.83;3.33;;;;;;;4.64;75.64;100405.44;5030521;28;20049;-80
2023/01/31 03:06:35;;;;;;;15.50;3.50;;;;;;;4.60;74.71;100383.78;5030441;28;20057;-80
2023/01/31 03:09:21;;;;;;;16.50;3.47;;;;;;;4.62;75.05;100383.75;5030514;28;20056;-79
2023/01/31 03:12:20;;;;;;;24.02;3.65;;;;;;;4.61;74.60;100376.81;5012896;28;20111;-80
2023/01/31 03:15:09;;;;;;;22.85;3.78;;;;;;;4.62;74.78;100378.53;5030783;28;20064;-80
2023/01/31 03:17:44;;;;;;;18.40;3.95;;;;;;;4.64;74.45;100384.59;5030467;28;20054;-80
2023/01/31 03:20:28;;;;;;;19.88;3.45;;;;;;;4.61;74.61;100369.88;5030751;28;20088;-80
2023/01/31 03:23:01;;;;;;;;;;;;;;;4.64;73.86;100382.81;5030887;28;20143;-80
2023/01/31 03:25:32;;;;;;;11.63;2.63;;;;;;;4.68;75.75;100384.47;5053651;23;19967;-80
2023/01/31 03:28:02;;;;;;;21.85;4.20;;;;;;;4.69;75.88;100372.31;5030399;28;20053;-79
2023/01/31 03:30:44;;;;;;;18.15;3.33;;;;;;;4.68;75.45;100366.22;5030566;28;20068;-80
2023/01/31 03:33:20;;;;;;;17.40;4.45;;;;;;;4.71;75.43;100361.84;5030234;28;20132;-80
2023/01/31 03:35:56;;;;;;;14.52;3.47;;;;;;;4.73;75.63;100355.69;5030382;28;20072;-79
2023/01/31 03:38:33;;;;;;;22.73;4.75;;;;;;;4.73;75.28;100347.00;5030165;28;20057;-79
2023/01/31 03:41:31;;;;;;;20.73;3.30;;;;;;;4.76;74.93;100352.16;5030436;28;20060;-79
2023/01/31 03:44:07;;;;;;;26.02;4.35;;;;;;;4.77;75.44;100349.50;5024361;28;20091;-79
2023/01/31 03:46:39;;;;;;;17.23;3.50;;;;;;;4.80;75.68;100352.06;5012826;28;20053;-79
2023/01/31 03:49:10;;;;;;;24.27;3.30;;;;;;;4.82;75.79;100338.94;5012709;28;20053;-79
2023/01/31 03:51:43;;;;;;;16.67;3.45;;;;;;;4.83;75.62;100348.53;5030367;28;20137;-79
2023/01/31 03:54:19;;;;;;;18.40;3.38;;;;;;;4.85;75.26;100341.50;5030215;28;20049;-79
2023/01/31 03:57:06;;;;;;;18.48;4.03;;;;;;;4.86;74.96;100342.38;5012106;28;20050;-79
2023/01/31 03:59:38;;;;;;;16.60;2.92;;;;;;;4.91;75.94;100340.50;5030404;28;20049;-80
2023/01/31 04:02:09;;;;;;;22.38;4.05;;;;;;;4.93;75.92;100341.31;5030036;28;20478;-79
2023/01/31 04:04:44;;;;;;;15.80;3.05;;;;;;;4.93;75.52;100339.56;5030169;28;20061;-80
2023/01/31 04:07:11;;;;;;;18.15;3.55;;;;;;;4.98;76.14;100336.00;5029941;28;20509;-80
2023/01/31 04:09:38;;;;;;;16.17;3.22;;;;;;;5.00;76.14;100342.88;5030354;28;20057;-79
2023/01/31 04:12:05;;;;;;;18.63;2.53;;;;;;;5.01;76.12;100343.75;5031760;28;20053;-80
2023/01/31 04:14:32;;;;;;;19.52;3.50;;;;;;;5.03;76.16;100341.94;5033634;28;20045;-80
2023/01/31 04:16:58;;;;;;;14.07;3.70;;;;;;;5.04;76.39;100339.31;5033021;28;20045;-80
2023/01/31 04:19:25;;;;;;;16.13;3.95;;;;;;;5.06;76.20;100337.53;5033755;28;20057;-79
2023/01/31 04:21:51;;;;;;;18.92;3.95;;;;;;;5.07;76.06;100330.53;5033447;28;20084;-80
2023/01/31 04:24:18;;;;;;;19.08;4.07;;;;;;;5.09;76.06;100326.16;5033443;28;20092;-80
2023/01/31 04:26:44;;;;;;;15.57;3.08;;;;;;;5.10;76.15;100314.81;5032880;28;20478;-79
2023/01/31 04:29:11;;;;;;;16.80;4.03;;;;;;;5.13;76.13;100314.75;5033483;28;20053;-80
2023/01/31 04:31:39;;;;;;;11.45;3.13;;;;;;;5.15;76.16;100309.47;5033224;28;20045;-79
2023/01/31 04:34:06;;;;;;;21.05;3.60;;;;;;;5.17;76.10;100307.69;5033226;28;20053;-80
2023/01/31 04:36:33;;;;;;;12.82;3.55;;;;;;;5.20;75.90;100307.63;5015743;28;20045;-80
2023/01/31 04:39:02;;;;;;;14.10;3.47;;;;;;;5.21;76.00;100310.16;5033120;28;20054;-80
2023/01/31 04:41:29;;;;;;;18.80;3.50;;;;;;;5.24;76.15;100298.81;5033251;28;20136;-80
2023/01/31 04:43:55;;;;;;;14.75;3.35;;;;;;;5.28;76.09;100304.78;5032703;28;20668;-79
2023/01/31 04:46:22;;;;;;;17.23;3.22;;;;;;;5.29;76.03;100293.44;5032749;28;20073;-79
2023/01/31 04:48:49;;;;;;;14.30;3.15;;;;;;;5.31;75.96;100291.69;5295263;22;20461;-79
2023/01/31 04:51:15;;;;;;;13.45;3.15;;;;;;;5.33;76.06;100284.66;5030885;28;20057;-79
2023/01/31 04:53:43;;;;;;;20.23;4.18;;;;;;;5.34;75.64;100274.16;5031703;28;20053;-79
2023/01/31 04:56:10;;;;;;;26.70;4.13;;;;;;;5.34;75.65;100273.28;5031767;28;20450;-80
2023/01/31 04:58:36;;;;;;;15.80;3.83;;;;;;;5.35;75.58;100275.03;5013765;28;20091;-80
2023/01/31 05:01:03;;;;;;;23.02;4.55;;;;;;;5.34;75.30;100268.06;5031511;28;20136;-80
2023/01/31 05:03:29;;;;;;;25.85;4.57;;;;;;;5.35;75.95;100265.44;5031456;28;20545;-80
2023/01/31 05:05:55;;;;;;;25.67;4.50;;;;;;;5.37;75.74;100262.78;5031247;28;20503;-79
2023/01/31 05:08:22;;;;;;;15.30;3.50;;;;;;;5.38;75.92;100259.25;5031272;28;20064;-79
2023/01/31 05:10:48;;;;;;;21.58;4.60;;;;;;;5.41;75.99;100255.72;5031138;28;20500;-79
2023/01/31 05:13:14;;;;;;;22.02;3.83;;;;;;;5.43;76.05;100254.78;5031398;28;20061;-79
2023/01/31 05:15:41;;;;;;;16.38;3.95;;;;;;;5.47;76.08;100252.94;5013401;28;20100;-79
2023/01/31 05:18:07;;;;;;;18.67;4.00;;;;;;;5.50;76.15;100242.44;5031082;28;20057;-79
2023/01/31 05:20:39;;;;;;;20.15;4.35;;;;;;;5.53;75.74;100237.09;5031412;28;20054;-79
2023/01/31 05:23:06;;;;;;;27.83;5.37;;;;;;;5.57;76.15;100250.94;5012637;28;20053;-79
2023/01/31 05:25:34;;;;;;;26.92;5.32;;;;;;;5.57;75.77;100238.72;5030986;28;20054;-79
2023/01/31 05:28:02;;;;;;;28.35;5.18;;;;;;;5.60;76.17;100243.88;5031066;28;20168;-79
2023/01/31 05:30:30;;;;;;;18.88;4.40;;;;;;;5.63;76.06;100244.66;5030971;28;20057;-80
2023/01/31 05:32:57;;;;;;;25.50;5.68;;;;;;;5.66;76.16;100241.97;5013557;28;20073;-80
2023/01/31 05:35:23;;;;;;;24.35;5.65;;;;;;;5.67;76.29;100238.44;5030989;28;20073;-79
2023/01/31 05:37:52;;;;;;;18.35;4.65;;;;;;;5.67;75.91;100243.69;5013340;28;20053;-79
2023/01/31 05:40:18;;;;;;;22.23;4.55;;;;;;;5.70;76.19;100241.84;5030940;28;20118;-79
2023/01/31 05:42:52;;;;;;;22.75;5.20;;;;;;;5.71;75.51;100240.06;5013080;28;20503;-79
2023/01/31 05:45:18;;;;;;;21.52;4.65;;;;;;;5.76;76.30;100238.22;5030579;28;20119;-79
2023/01/31 05:47:46;;;;;;;21.00;5.13;;;;;;;5.77;76.58;100229.47;5030700;28;20092;-79
2023/01/31 05:50:13;;;;;;;23.42;4.90;;;;;;;5.82;76.25;100218.88;5030378;28;20054;-80
2023/01/31 05:52:39;;;;;;;25.85;4.90;;;;;;;5.83;76.18;100224.03;5012883;28;20123;-80
2023/01/31 05:55:06;;;;;;;20.27;5.53;;;;;;;5.85;76.33;100222.25;5030374;28;20064;-80
2023/01/31 05:57:32;;;;;;;24.63;5.35;;;;;;;5.86;76.03;100213.50;5030103;28;20061;-80
2023/01/31 05:59:59;;;;;;;24.25;5.30;;;;;;;5.87;76.14;100223.06;5012733;28;20107;-80
2023/01/31 06:02:26;;;;;;;23.38;5.38;;;;;;;5.90;76.00;100223.88;5030440;28;20057;-80
2023/01/31 06:04:52;;;;;;;21.40;5.32;;;;;;;5.90;76.18;100224.72;5030438;28;20053;-80
2023/01/31 06:07:19;;;;;;;20.92;5.95;;;;;;;5.93;76.37;100229.00;5012413;28;20104;-80
2023/01/31 06:09:45;;;;;;;26.08;6.03;;;;;;;5.93;76.05;100221.16;5030598;28;20487;-80
2023/01/31 06:12:13;;;;;;;20.95;5.50;;;;;;;5.95;76.26;100228.03;5012508;28;20584;-80
2023/01/31 06:14:39;;;;;;;29.90;6.55;;;;;;;5.94;76.02;100215.06;5012215;28;20408;-80
2023/01/31 06:17:06;;;;;;;25.42;6.57;;;;;;;5.96;76.15;100218.47;5029489;28;20062;-79
2023/01/31 06:19:32;;;;;;;25.00;6.47;;;;;;;5.98;76.25;100216.66;5029810;28;20527;-80
2023/01/31 06:21:59;;;;;;;30.77;6.53;;;;;;;5.98;75.97;100219.28;5029621;28;20060;-79
2023/01/31 06:24:25;;;;;;;26.75;7.47;;;;;;;5.98;75.91;100206.22;5030278;28;20064;-80
2023/01/31 06:26:53;;;;;;;20.25;6.25;;;;;;;5.98;75.92;100220.13;5029405;28;20056;-80
2023/01/31 06:29:19;;;;;;;21.83;7.00;;;;;;;6.02;76.06;100209.56;5012419;28;20057;-79
2023/01/31 06:31:46;;;;;;;19.42;6.13;;;;;;;6.00;75.88;100213.09;5030022;28;20108;-80
2023/01/31 06:34:12;;;;;;;24.50;6.68;;;;;;;5.99;75.71;100202.69;5028970;28;20057;-80
2023/01/31 06:36:38;;;;;;;27.55;7.28;;;;;;;6.02;75.79;100213.03;5029804;28;20799;-79
2023/01/31 06:39:05;;;;;;;28.88;7.80;;;;;;;6.01;75.72;100211.31;5029463;28;20167;-80
2023/01/31 06:41:31;;;;;;;29.73;7.35;;;;;;;6.02;75.67;100206.97;5028854;28;20045;-80
2023/01/31 06:43:58;;;;;;;22.83;7.68;;;;;;;6.00;75.66;100220.94;5029317;28;20060;-79
2023/01/31 06:46:24;;;;;;;26.13;8.25;;;;;;;5.99;75.82;100197.47;5029427;28;20111;-79
2023/01/31 06:48:51;;;;;;;26.60;7.20;;;;;;;6.01;75.92;100208.72;5010660;28;20111;-79
2023/01/31 06:51:17;;;;;;;22.77;7.22;;;;;;;6.00;75.91;100200.03;5028005;28;20052;-79
2023/01/31 06:53:44;;;;;;;25.40;7.18;;;;;;;6.00;75.92;100192.19;5010482;28;20057;-80
2023/01/31 06:56:10;;;;;;;24.55;7.05;;;;;;;6.00;76.35;100205.25;5027903;28;20061;-80
2023/01/31 06:58:37;;;;;;;26.77;9.15;;;;;;;6.03;76.08;100198.22;5027500;28;20111;-80
2023/01/31 07:01:07;;;;;;;31.30;8.25;;;;;;;6.03;75.74;100204.34;5029580;28;20080;-80
2023/01/31 07:03:34;;;;;;;26.75;7.57;;;;;;;6.05;75.79;100181.63;5028187;28;20076;-79
2023/01/31 07:06:01;;;;;;;32.70;8.50;;;;;;;6.05;75.90;100175.56;5028080;28;20115;-80
2023/01/31 07:08:27;;;;;;;27.85;8.18;;;;;;;6.06;75.95;100185.94;5010305;28;20058;-80
2023/01/31 07:10:54;;;;;;;25.90;7.82;;;;;;;6.07;75.93;100182.44;5010081;28;20281;-79
2023/01/31 07:13:20;;;;;;;28.50;8.30;;;;;;;6.09;75.83;100182.41;5010179;28;20085;-80
2023/01/31 07:15:46;;;;;;;30.08;8.38;;;;;;;6.10;76.09;100171.03;5010089;28;20062;-79
2023/01/31 07:18:13;;;;;;;27.48;8.90;;;;;;;6.11;76.06;100170.13;5028016;28;20053;-80
2023/01/31 07:20:43;;;;;;;26.05;9.13;;;;;;;6.11;75.94;100165.75;5011693;28;20053;-79
2023/01/31 07:23:10;;;;;;;33.85;9.05;;;;;;;6.15;76.10;100165.63;5010319;28;20124;-79
2023/01/31 07:25:36;;;;;;;24.15;8.85;;;;;;;6.16;76.15;100167.38;5011430;28;20056;-81
2023/01/31 07:28:03;;;;;;;32.53;10.32;;;;;;;6.17;75.79;100166.47;5029179;28;20112;-80
2023/01/31 07:30:30;;;;;;;33.03;11.02;;;;;;;6.16;75.82;100162.97;5028882;28;20060;-80
2023/01/31 07:32:57;;;;;;;30.08;10.45;;;;;;;6.19;75.93;100162.88;5011480;28;20050;-80
2023/01/31 07:35:23;;;;;;;28.98;10.05;;;;;;;6.21;76.18;100168.06;5029497;28;20050;-80
2023/01/31 07:37:52;;;;;;;24.52;9.38;;;;;;;6.22;75.41;100172.38;5028954;28;20053;-79
2023/01/31 07:40:19;;;;;;;31.77;9.60;;;;;;;6.27;75.95;100152.19;5029289;28;20057;-80
2023/01/31 07:42:45;;;;;;;26.58;10.15;;;;;;;6.28;76.28;100146.03;5029153;28;20057;-80
2023/01/31 07:45:14;;;;;;;26.00;9.55;;;;;;;6.32;75.97;100136.34;5011482;28;20049;-80
2023/01/31 07:47:49;;;;;;;31.35;10.50;;;;;;;6.35;76.22;100139.69;5031891;28;20057;-80
2023/01/31 07:50:15;;;;;;;32.50;11.00;;;;;;;6.39;76.22;100138.69;5014802;28;20064;-79
2023/01/31 07:52:42;;;;;;;31.40;9.90;;;;;;;6.42;76.21;100142.97;5014778;28;20072;-80
2023/01/31 07:55:08;;;;;;;30.50;9.48;;;;;;;6.45;76.09;100137.66;5032705;28;20057;-80
2023/01/31 07:57:35;;;;;;;24.55;9.75;;;;;;;6.49;75.98;100135.78;5032843;28;20135;-80
2023/01/31 08:00:02;;;;;;;24.00;9.82;;;;;;;6.50;75.85;100129.63;5014874;28;20049;-80
2023/01/31 08:05:13;;;;;;;29.45;10.25;;;;;;;6.56;75.71;100123.34;5032480;28;20057;-80
2023/01/31 08:07:40;;;;;;;22.13;9.18;;;;;;;6.57;75.70;100128.53;5032233;28;20069;-80
2023/01/31 08:10:08;;;;;;;23.92;9.40;;;;;;;6.60;75.42;100104.00;5032519;28;20061;-79
2023/01/31 08:12:35;;;;;;;26.88;9.82;;;;;;;6.62;75.82;100112.69;5032245;28;20487;-80
2023/01/31 08:15:01;;;;;;;35.17;10.93;;;;;;;6.60;75.04;100104.00;5032093;28;20053;-80
2023/01/31 08:17:28;;;;;;;29.75;9.70;;;;;;;6.61;75.62;100098.72;5032101;28;20065;-79
2023/01/31 08:19:54;;;;;;;22.85;9.70;;;;;;;6.62;75.33;100103.06;5032515;28;20239;-80
2023/01/31 08:22:21;;;;;;;25.75;9.73;;;;;;;6.62;75.51;100097.81;5032408;28;20072;-80
2023/01/31 08:24:47;;;;;;;30.05;10.45;;;;;;;6.63;75.69;100088.22;5031934;28;20508;-80
2023/01/31 08:27:14;;;;;;;25.58;10.98;;;;;;;6.64;75.71;100090.78;5031893;28;20153;-80
2023/01/31 08:29:40;;;;;;;25.80;10.38;;;;;;;6.65;75.44;100102.09;5032170;28;20131;-80
2023/01/31 08:32:07;;;;;;;24.88;10.32;;;;;;;6.65;75.32;100078.53;5031985;28;20057;-79
2023/01/31 08:34:33;;;;;;;24.83;9.82;;;;;;;6.66;75.38;100069.81;5032132;28;20053;-80
2023/01/31 08:37:00;;;;;;;31.08;10.63;;;;;;;6.69;75.78;100071.47;5031739;28;20061;-80
2023/01/31 08:39:26;;;;;;;26.17;9.98;;;;;;;6.70;75.58;100060.09;5014481;28;20063;-80
2023/01/31 08:41:52;;;;;;;21.98;9.63;;;;;;;6.73;75.56;100067.81;5014369;28;20049;-80
2023/01/31 08:44:19;;;;;;;27.75;9.75;;;;;;;6.74;75.45;100056.44;5031791;28;20057;-79
2023/01/31 08:46:45;;;;;;;22.70;9.20;;;;;;;6.76;75.49;100046.75;5031802;28;20080;-80
2023/01/31 08:49:12;;;;;;;25.10;9.85;;;;;;;6.77;75.53;100049.31;5014152;28;20065;-80
2023/01/31 08:51:39;;;;;;;24.92;9.65;;;;;;;6.77;75.17;100051.94;5031753;28;20052;-80
2023/01/31 08:54:05;;;;;;;22.58;8.93;;;;;;;6.78;75.42;100058.03;5014007;28;20054;-80
2023/01/31 08:56:31;;;;;;;28.15;10.32;;;;;;;6.75;74.53;100063.38;5013901;28;20053;-80
2023/01/31 08:59:01;;;;;;;29.38;10.05;;;;;;;6.76;74.71;100059.84;5031080;28;20068;-80
2023/01/31 09:01:27;;;;;;;26.10;9.68;;;;;;;6.77;74.90;100064.19;5013739;28;20511;-80
2023/01/31 09:03:55;;;;;;;28.27;9.70;;;;;;;6.77;74.83;100075.50;5031482;28;20061;-80
2023/01/31 09:06:25;;;;;;;22.33;9.32;;;;;;;6.79;74.77;100062.34;5031176;28;20096;-80
2023/01/31 09:08:54;;;;;;;25.40;9.60;;;;;;;6.80;74.85;100050.16;5031253;28;20104;-80
2023/01/31 09:11:20;;;;;;;30.50;10.65;;;;;;;6.82;75.13;100048.31;5031232;28;20057;-80
2023/01/31 09:13:50;;;;;;;22.52;9.68;;;;;;;6.82;75.03;100043.94;5013359;28;20529;-80
2023/01/31 09:16:18;;;;;;;28.85;10.25;;;;;;;6.82;74.77;100053.53;5030928;28;20422;-80
2023/01/31 09:18:44;;;;;;;26.10;10.38;;;;;;;6.83;74.93;100036.94;5013522;28;20061;-80
2023/01/31 09:21:20;;;;;;;25.42;10.10;;;;;;;6.79;73.79;100041.44;5031107;28;20053;-80
2023/01/31 09:23:47;;;;;;;27.70;10.38;;;;;;;6.84;74.95;100049.13;5013570;28;20053;-80
2023/01/31 09:26:15;;;;;;;26.27;10.43;;;;;;;6.84;74.65;100052.56;5030788;28;20136;-80
2023/01/31 09:28:42;;;;;;;28.52;10.20;;;;;;;6.84;75.10;100042.09;5013305;28;20054;-80
2023/01/31 09:31:13;;;;;;;25.40;10.48;;;;;;;6.85;74.47;100042.97;5031296;28;20065;-80
2023/01/31 09:33:40;;;;;;;24.52;10.55;;;;;;;6.83;75.04;100035.19;5013367;28;20045;-80
2023/01/31 09:36:10;;;;;;;27.85;11.02;;;;;;;6.85;74.75;100029.88;5030787;28;20065;-80
2023/01/31 09:38:36;;;;;;;26.52;11.35;;;;;;;6.85;74.70;100030.75;5030735;28;20057;-79
2023/01/31 09:41:10;;;;;;;26.85;11.02;;;;;;;6.84;74.98;100021.16;5030727;28;20057;-79
2023/01/31 09:43:40;;;;;;;21.42;9.57;;;;;;;6.86;74.60;100023.75;5030768;28;20053;-79
2023/01/31 09:46:15;;;;;;;30.67;11.40;;;;;;;6.85;74.02;100029.88;5030548;28;20581;-80
2023/01/31 09:48:46;;;;;;;25.85;10.90;;;;;;;6.89;74.79;100028.88;5030350;28;20060;-79
2023/01/31 09:51:14;;;;;;;29.45;10.40;;;;;;;6.89;74.99;100040.16;5030334;28;20419;-80
2023/01/31 09:53:41;;;;;;;22.35;11.00;;;;;;;6.90;74.70;100033.19;5030580;28;20053;-80
2023/01/31 09:56:08;;;;;;;25.23;10.88;;;;;;;6.91;74.58;100040.13;5030559;28;20512;-80
2023/01/31 09:58:58;;;;;;;30.17;11.48;;;;;;;6.87;73.45;100028.91;5030157;28;20526;-80
2023/01/31 10:01:46;;;;;;;22.88;10.43;;;;;;;6.87;73.09;100039.38;5030335;28;20115;-79
2023/01/31 10:04:41;;;;;;;25.15;10.18;;;;;;;6.90;73.27;100039.28;5030580;28;20053;-79
2023/01/31 10:07:29;;;;;;;29.80;11.20;;;;;;;6.93;74.41;100034.81;5012262;28;20053;-80
2023/01/31 10:10:15;;;;;;;30.35;11.70;;;;;;;6.90;73.65;100028.81;5029671;28;20152;-80
2023/01/31 10:12:46;;;;;;;36.42;12.73;;;;;;;6.89;74.26;100027.06;5030166;28;20054;-80
2023/01/31 10:15:37;;;;;;;22.90;10.05;;;;;;;6.87;73.38;100036.75;5030016;28;20088;-80
2023/01/31 10:18:14;;;;;;;26.80;10.65;;;;;;;6.85;73.34;100025.53;5029892;28;20419;-80
2023/01/31 10:20:48;;;;;;;26.63;11.27;;;;;;;6.85;74.20;100008.94;5030092;28;20065;-79
2023/01/31 10:23:59;;;;;;;27.17;11.13;;;;;;;6.83;73.61;100022.09;5029748;28;20053;-80
2023/01/31 10:26:30;;;;;;;31.10;11.15;;;;;;;6.83;74.47;100013.38;4929724;29;20110;-80
2023/01/31 10:29:16;;;;;;;28.00;11.75;;;;;;;6.78;74.39;99992.63;4930314;29;20335;-80
2023/01/31 10:31:52;;;;;;;23.55;11.18;;;;;;;6.73;74.58;99999.81;4979973;28;20053;-80
2023/01/31 10:34:35;;;;;;;29.08;11.65;;;;;;;6.71;74.57;100001.59;5029990;28;20057;-80
2023/01/31 10:37:10;;;;;;;27.73;11.35;;;;;;;6.71;74.91;100004.22;5029417;28;20057;-80
2023/01/31 10:39:52;;;;;;;29.58;11.77;;;;;;;6.69;75.14;99988.59;5029871;28;20053;-80
2023/01/31 10:42:31;;;;;;;28.83;11.32;;;;;;;6.67;74.98;99989.56;5012084;28;20061;-80
2023/01/31 10:45:06;;;;;;;22.08;10.98;;;;;;;6.68;75.42;99986.03;5029625;28;20057;-80
2023/01/31 10:47:36;;;;;;;25.33;11.38;;;;;;;6.65;75.34;99971.28;5011652;28;20450;-80
2023/01/31 10:50:15;;;;;;;26.83;11.40;;;;;;;6.63;74.88;99976.59;5068062;22;20778;-80
2023/01/31 10:53:13;;;;;;;25.05;11.27;;;;;;;6.62;74.81;99985.34;5030617;28;20099;-80
2023/01/31 10:56:04;;;;;;;34.00;11.27;;;;;;;6.60;74.94;99976.72;5030687;28;20049;-79
2023/01/31 10:58:31;;;;;;;26.27;10.77;;;;;;;6.65;75.60;99966.06;5030584;28;20060;-80
2023/01/31 11:00:58;;;;;;;22.15;11.00;;;;;;;6.62;75.84;99942.66;5030436;28;20053;-80
2023/01/31 11:03:25;;;;;;;32.25;11.20;;;;;;;6.60;76.13;99932.25;5030666;28;20108;-80
2023/01/31 11:05:55;;;;;;;25.10;9.90;;;;;;;6.60;76.26;99941.84;5030480;28;20085;-80
2023/01/31 11:08:56;;;;;;;22.38;11.00;;;;;;;6.58;75.62;99957.59;5030392;28;20505;-80
2023/01/31 11:11:25;;;;;;;28.50;10.43;;;;;;;6.63;76.17;99949.59;5012834;28;20674;-80
2023/01/31 11:14:04;;;;;;;25.42;10.65;;;;;;;6.61;76.09;99939.19;5030394;28;20729;-80
2023/01/31 11:16:37;;;;;;;29.40;11.15;;;;;;;6.65;76.46;99955.59;5030147;28;20528;-80
2023/01/31 11:19:14;;;;;;;25.35;10.23;;;;;;;6.65;75.96;99943.38;5030444;28;20053;-80
2023/01/31 11:21:46;;;;;;;21.83;10.23;;;;;;;6.71;76.79;99936.22;5015938;28;20049;-80
2023/01/31 11:24:16;;;;;;;27.80;10.23;;;;;;;6.72;76.46;99948.38;5034543;28;20060;-79
2023/01/31 11:26:54;;;;;;;26.15;10.18;;;;;;;6.72;75.48;99938.78;5034175;28;20061;-80
2023/01/31 11:29:28;;;;;;;23.40;10.30;;;;;;;6.76;75.79;99947.34;5016766;28;20161;-80
2023/01/31 11:31:57;;;;;;;27.48;10.98;;;;;;;6.80;75.95;99932.41;5034003;28;20584;-80
2023/01/31 11:34:28;;;;;;;23.58;10.55;;;;;;;6.80;76.30;99943.69;5034373;28;20115;-80
2023/01/31 11:37:16;;;;;;;27.75;10.52;;;;;;;6.80;75.25;99930.63;5033901;28;20211;-80
2023/01/31 11:39:54;;;;;;;31.48;10.52;;;;;;;6.82;75.42;99926.19;5034199;28;20057;-80
2023/01/31 11:42:21;;;;;;;21.15;10.07;;;;;;;6.88;76.36;99925.94;5033951;28;20099;-81
2023/01/31 11:45:00;;;;;;;25.45;10.65;;;;;;;6.87;75.82;99923.38;5033983;28;20057;-80
2023/01/31 11:47:44;;;;;;;20.77;10.02;;;;;;;6.89;75.16;99914.56;5033888;28;20057;-80